Airfield :
LOGIN :

Register | Disclaimer

   EN    FR    IT 

 










Legend :    VFR   Marginal VFR   IFR   Intensive IFR   Very Intensive IFR
Visi :
Ceiling :
>= 8 km
>= 3000ft
5 to 8 km
1000 to 3000 ft
1500m to 5 km
500 to 1000 ft
800 to 1500m
200 to 500 ft
< 800m
< 200 ft
Symbols :   Thunderstorms  Fog  Heavy snow  Heavy precipitations  Wind > 20 kt
SIGMETs :     Misc.  Thunderstorms  Icing  Turbulence  Mountain Waves  Volcanic Ashes






- Airport Elevation : 610 ft
- IATA code : VXO


ESMX - Växjö Kronoberg

CURRENT METAR :
  • 090420Z AUTO 14009KT 9999 -DZ OVC048/// 06/02 Q1010

EXPIRED METARs :
  • 090350Z AUTO 14008KT 9999 -DZ OVC045/// 06/02 Q1010 REUP
  • 090320Z AUTO 14008KT 110V170 9999 BKN055/// 05/02 Q1010
  • 090250Z AUTO 14007KT 110V170 9999 BKN076/// OVC100/// 05/02 Q1011
  • 090220Z AUTO 13007KT 100V160 9999 BKN057/// OVC110/// 05/02 Q1011
  • 090150Z AUTO 14007KT 9999 FEW059/// OVC120/// 05/02 Q1011

Expired Forecast.



MET'MAP, your aeronautical weather chart ! - Copyright ORBIFLY December 2007 - Disclaimer

ORBIFLY MET'MAP TEAM :

Programming & Development : Alexandra Zaïnal
Concept & original design : Baudouin d'Aumeries
Assistance for programming : Marc-Olivier Méhu
Technical & hardware support : Manuel Goepfert

Contact : metmap@orbifly.com




SOURCES & CREDITS :

   NOAA